Time,TemperatureF,DewpointF,PressureIn,WindDirection,WindDirectionDegrees,WindSpeedMPH,WindSpeedGustMPH,Humidity,HourlyPrecipIn,Conditions,Clouds,dailyrainin,SoftwareType,DateUTC
2013-07-13 00:11:00,75.1,74.0,30.02,NW,312,4.0,7.0,95,0.00,,,0.40,weatherlink.com 1.10,2013-07-13 04:11:00,
2013-07-13 00:26:00,75.2,74.0,30.02,North,349,5.0,7.0,95,0.00,,,0.00,weatherlink.com 1.10,2013-07-13 04:26:00,
2013-07-13 00:41:00,75.4,74.0,30.02,NNE,31,2.0,7.0,95,0.00,,,0.00,weatherlink.com 1.10,2013-07-13 04:41:00,
2013-07-13 00:56:00,75.7,74.0,30.02,North,6,4.0,7.0,95,0.00,,,0.00,weatherlink.com 1.10,2013-07-13 04:56:00,
2013-07-13 01:11:00,75.9,74.0,30.02,NNW,344,4.0,7.0,95,0.00,,,0.00,weatherlink.com 1.10,2013-07-13 05:11:00,
2013-07-13 01:26:00,76.2,75.0,30.02,NNW,347,6.0,7.0,95,0.00,,,0.00,weatherlink.com 1.10,2013-07-13 05:26:00,
2013-07-13 01:41:00,76.3,75.0,30.02,NNE,25,6.0,8.0,95,0.00,,,0.00,weatherlink.com 1.10,2013-07-13 05:41:00,
2013-07-13 01:56:00,75.8,74.0,30.03,North,351,5.0,9.0,95,0.00,,,0.00,weatherlink.com 1.10,2013-07-13 05:56:00,
2013-07-13 02:11:00,75.8,74.0,30.03,North,349,5.0,15.0,94,0.00,,,0.00,weatherlink.com 1.10,2013-07-13 06:11:00,
2013-07-13 02:26:00,75.0,73.0,30.02,NNE,18,6.0,10.0,94,0.00,,,0.00,weatherlink.com 1.10,2013-07-13 06:26:00,
2013-07-13 02:41:00,75.3,73.0,30.03,North,359,6.0,9.0,93,0.00,,,0.00,weatherlink.com 1.10,2013-07-13 06:41:00,
2013-07-13 02:56:00,75.2,73.0,30.03,NNW,332,7.0,8.0,93,0.00,,,0.00,weatherlink.com 1.10,2013-07-13 06:56:00,
2013-07-13 03:11:00,75.2,73.0,30.03,NNW,339,3.0,6.0,93,0.00,,,0.00,weatherlink.com 1.10,2013-07-13 07:11:00,
2013-07-13 03:26:00,75.1,73.0,30.03,North,354,3.0,4.0,94,0.00,,,0.00,weatherlink.com 1.10,2013-07-13 07:26:00,
2013-07-13 03:42:00,75.3,74.0,30.03,NNE,20,4.0,5.0,95,0.00,,,0.00,weatherlink.com 1.10,2013-07-13 07:42:00,
2013-07-13 03:57:00,75.4,74.0,30.04,NNW,347,4.0,7.0,94,0.00,,,0.00,weatherlink.com 1.10,2013-07-13 07:57:00,
2013-07-13 04:12:00,75.6,74.0,30.04,North,8,2.0,7.0,95,0.00,,,0.00,weatherlink.com 1.10,2013-07-13 08:12:00,
2013-07-13 04:27:00,75.5,74.0,30.04,NNE,19,7.0,7.0,95,0.00,,,0.00,weatherlink.com 1.10,2013-07-13 08:27:00,
2013-07-13 04:42:00,75.4,74.0,30.06,NNW,330,16.0,18.0,95,0.00,,,0.00,weatherlink.com 1.10,2013-07-13 08:42:00,
2013-07-13 04:57:00,74.4,73.0,30.07,NE,43,10.0,19.0,95,0.02,,,0.02,weatherlink.com 1.10,2013-07-13 08:57:00,
2013-07-13 05:12:00,74.5,73.0,30.06,NNW,330,12.0,16.0,95,0.02,,,0.02,weatherlink.com 1.10,2013-07-13 09:12:00,
2013-07-13 05:27:00,74.9,73.0,30.06,NNE,32,9.0,18.0,95,0.02,,,0.02,weatherlink.com 1.10,2013-07-13 09:27:00,
2013-07-13 05:42:00,74.5,73.0,30.06,ENE,72,7.0,15.0,95,0.02,,,0.02,weatherlink.com 1.10,2013-07-13 09:42:00,
2013-07-13 05:57:00,74.6,73.0,30.07,NNE,14,8.0,11.0,95,0.00,,,0.02,weatherlink.com 1.10,2013-07-13 09:57:00,
2013-07-13 06:12:00,74.7,73.0,30.07,NE,43,7.0,11.0,95,0.00,,,0.02,weatherlink.com 1.10,2013-07-13 10:12:00,
2013-07-13 06:27:00,75.1,74.0,30.07,NNE,32,5.0,9.0,95,0.00,,,0.02,weatherlink.com 1.10,2013-07-13 10:27:00,
2013-07-13 06:42:00,75.2,74.0,30.08,North,11,4.0,7.0,95,0.00,,,0.02,weatherlink.com 1.10,2013-07-13 10:42:00,
2013-07-13 06:57:00,75.5,74.0,30.09,NE,49,2.0,7.0,94,0.00,,,0.02,weatherlink.com 1.10,2013-07-13 10:57:00,
2013-07-13 07:12:00,75.8,74.0,30.09,North,8,5.0,7.0,94,0.00,,,0.02,weatherlink.com 1.10,2013-07-13 11:12:00,
2013-07-13 07:27:00,76.7,75.0,30.10,North,355,8.0,11.0,93,0.00,,,0.02,weatherlink.com 1.10,2013-07-13 11:27:00,
2013-07-13 07:42:00,77.8,74.0,30.11,North,353,17.0,17.0,89,0.00,,,0.02,weatherlink.com 1.10,2013-07-13 11:42:00,
2013-07-13 07:57:00,79.0,75.0,30.11,North,1,19.0,23.0,86,0.00,,,0.02,weatherlink.com 1.10,2013-07-13 11:57:00,
2013-07-13 08:12:00,78.7,74.0,30.11,NNW,338,14.0,25.0,85,0.00,,,0.02,weatherlink.com 1.10,2013-07-13 12:12:00,
2013-07-13 08:27:00,79.1,74.0,30.12,North,351,15.0,20.0,85,0.00,,,0.02,weatherlink.com 1.10,2013-07-13 12:27:00,
2013-07-13 08:42:00,79.2,75.0,30.13,NW,320,8.0,16.0,86,0.00,,,0.02,weatherlink.com 1.10,2013-07-13 12:42:00,
2013-07-13 08:57:00,79.6,74.0,30.14,NNW,335,17.0,19.0,84,0.00,,,0.02,weatherlink.com 1.10,2013-07-13 12:57:00,
2013-07-13 09:12:00,80.0,75.0,30.14,North,1,16.0,21.0,84,0.00,,,0.02,weatherlink.com 1.10,2013-07-13 13:12:00,
2013-07-13 09:27:00,80.0,75.0,30.15,NNE,13,14.0,19.0,84,0.00,,,0.02,weatherlink.com 1.10,2013-07-13 13:27:00,
2013-07-13 09:42:00,80.2,75.0,30.15,NNE,21,11.0,19.0,84,0.00,,,0.02,weatherlink.com 1.10,2013-07-13 13:42:00,
2013-07-13 09:57:00,80.2,75.0,30.15,NNW,334,10.0,16.0,84,0.00,,,0.02,weatherlink.com 1.10,2013-07-13 13:57:00,
2013-07-13 10:12:00,80.1,75.0,30.15,NNE,19,16.0,16.0,84,0.00,,,0.02,weatherlink.com 1.10,2013-07-13 14:12:00,
2013-07-13 10:27:00,80.4,75.0,30.16,NNW,328,9.0,16.0,83,0.00,,,0.02,weatherlink.com 1.10,2013-07-13 14:27:00,
2013-07-13 10:42:00,80.3,75.0,30.16,NNW,327,10.0,15.0,84,0.00,,,0.02,weatherlink.com 1.10,2013-07-13 14:42:00,
2013-07-13 10:57:00,80.4,75.0,30.16,NW,312,11.0,15.0,84,0.00,,,0.02,weatherlink.com 1.10,2013-07-13 14:57:00,
2013-07-13 11:12:00,80.1,75.0,30.16,WNW,297,9.0,14.0,85,0.00,,,0.02,weatherlink.com 1.10,2013-07-13 15:12:00,
2013-07-13 11:27:00,79.9,75.0,30.17,NW,318,12.0,15.0,85,0.00,,,0.02,weatherlink.com 1.10,2013-07-13 15:27:00,
2013-07-13 11:42:00,79.7,75.0,30.17,North,350,15.0,16.0,86,0.00,,,0.02,weatherlink.com 1.10,2013-07-13 15:42:00,
2013-07-13 11:57:00,79.6,75.0,30.17,North,10,14.0,16.0,86,0.00,,,0.02,weatherlink.com 1.10,2013-07-13 15:57:00,
2013-07-13 12:12:00,79.8,75.0,30.18,NW,325,14.0,15.0,86,0.00,,,0.02,weatherlink.com 1.10,2013-07-13 16:12:00,
2013-07-13 12:27:00,79.8,75.0,30.17,NNW,329,12.0,16.0,86,0.00,,,0.02,weatherlink.com 1.10,2013-07-13 16:27:00,
2013-07-13 12:43:00,79.9,76.0,30.17,WNW,292,9.0,14.0,87,0.00,,,0.02,weatherlink.com 1.10,2013-07-13 16:43:00,
2013-07-13 12:58:00,80.0,76.0,30.17,NW,323,8.0,13.0,88,0.00,,,0.02,weatherlink.com 1.10,2013-07-13 16:58:00,
2013-07-13 13:13:00,80.1,76.0,30.17,NNW,328,12.0,15.0,87,0.00,,,0.02,weatherlink.com 1.10,2013-07-13 17:13:00,
2013-07-13 13:28:00,80.3,76.0,30.18,NNW,332,10.0,15.0,86,0.00,,,0.02,weatherlink.com 1.10,2013-07-13 17:28:00,
2013-07-13 13:43:00,80.5,76.0,30.18,NNW,346,10.0,13.0,86,0.00,,,0.02,weatherlink.com 1.10,2013-07-13 17:43:00,
2013-07-13 13:58:00,80.6,76.0,30.18,NW,326,7.0,14.0,85,0.00,,,0.02,weatherlink.com 1.10,2013-07-13 17:58:00,
2013-07-13 14:13:00,80.5,75.0,30.18,NNW,338,11.0,14.0,84,0.00,,,0.02,weatherlink.com 1.10,2013-07-13 18:13:00,
2013-07-13 14:28:00,80.6,76.0,30.18,NW,325,13.0,16.0,85,0.00,,,0.02,weatherlink.com 1.10,2013-07-13 18:28:00,
2013-07-13 14:43:00,80.3,76.0,30.18,NW,310,14.0,15.0,85,0.00,,,0.02,weatherlink.com 1.10,2013-07-13 18:43:00,
2013-07-13 14:58:00,80.6,76.0,30.18,NW,317,11.0,14.0,85,0.00,,,0.02,weatherlink.com 1.10,2013-07-13 18:58:00,
2013-07-13 15:13:00,80.5,76.0,30.18,North,349,9.0,15.0,85,0.00,,,0.02,weatherlink.com 1.10,2013-07-13 19:13:00,
2013-07-13 15:28:00,80.5,76.0,30.17,WNW,302,9.0,15.0,86,0.00,,,0.02,weatherlink.com 1.10,2013-07-13 19:28:00,
2013-07-13 15:43:00,80.7,76.0,30.18,North,351,8.0,12.0,86,0.00,,,0.02,weatherlink.com 1.10,2013-07-13 19:43:00,
2013-07-13 15:58:00,80.7,76.0,30.18,NW,313,10.0,13.0,85,0.00,,,0.02,weatherlink.com 1.10,2013-07-13 19:58:00,
2013-07-13 16:13:00,80.8,76.0,30.19,NW,323,9.0,12.0,85,0.00,,,0.02,weatherlink.com 1.10,2013-07-13 20:13:00,
2013-07-13 16:28:00,80.8,76.0,30.18,NNW,341,9.0,12.0,85,0.00,,,0.02,weatherlink.com 1.10,2013-07-13 20:28:00,
2013-07-13 16:43:00,80.5,76.0,30.18,NNW,337,11.0,13.0,86,0.00,,,0.02,weatherlink.com 1.10,2013-07-13 20:43:00,
2013-07-13 16:58:00,80.4,76.0,30.18,NNW,333,10.0,14.0,86,0.00,,,0.02,weatherlink.com 1.10,2013-07-13 20:58:00,
2013-07-13 17:13:00,80.2,76.0,30.18,NNW,329,9.0,12.0,87,0.00,,,0.02,weatherlink.com 1.10,2013-07-13 21:13:00,
2013-07-13 17:28:00,80.3,76.0,30.18,NW,317,8.0,14.0,87,0.00,,,0.02,weatherlink.com 1.10,2013-07-13 21:28:00,
2013-07-13 17:43:00,80.3,76.0,30.18,NNW,330,9.0,12.0,87,0.00,,,0.02,weatherlink.com 1.10,2013-07-13 21:43:00,
2013-07-13 17:58:00,80.2,76.0,30.18,NW,309,8.0,12.0,88,0.00,,,0.02,weatherlink.com 1.10,2013-07-13 21:58:00,
2013-07-13 18:13:00,80.1,76.0,30.18,NNW,331,10.0,13.0,88,0.00,,,0.02,weatherlink.com 1.10,2013-07-13 22:13:00,
2013-07-13 18:28:00,79.9,76.0,30.18,NNW,333,12.0,13.0,88,0.00,,,0.02,weatherlink.com 1.10,2013-07-13 22:28:00,
2013-07-13 18:43:00,79.9,76.0,30.19,NW,319,9.0,14.0,88,0.00,,,0.02,weatherlink.com 1.10,2013-07-13 22:43:00,
2013-07-13 18:58:00,79.6,76.0,30.19,NW,321,8.0,14.0,88,0.00,,,0.02,weatherlink.com 1.10,2013-07-13 22:58:00,
2013-07-13 19:13:00,79.4,76.0,30.20,NNW,327,9.0,12.0,89,0.00,,,0.02,weatherlink.com 1.10,2013-07-13 23:13:00,
2013-07-13 19:28:00,79.4,76.0,30.20,NW,321,7.0,12.0,89,0.00,,,0.02,weatherlink.com 1.10,2013-07-13 23:28:00,
2013-07-13 19:43:00,78.9,76.0,30.20,North,351,9.0,10.0,90,0.00,,,0.02,weatherlink.com 1.10,2013-07-13 23:43:00,
2013-07-13 19:58:00,78.8,76.0,30.20,NW,321,6.0,10.0,90,0.00,,,0.02,weatherlink.com 1.10,2013-07-13 23:58:00,
2013-07-13 20:13:00,78.6,76.0,30.20,North,1,8.0,11.0,90,0.00,,,0.02,weatherlink.com 1.10,2013-07-14 00:13:00,
2013-07-13 20:28:00,78.5,75.0,30.21,NNW,347,8.0,11.0,90,0.00,,,0.02,weatherlink.com 1.10,2013-07-14 00:28:00,
2013-07-13 20:43:00,78.6,76.0,30.21,NW,326,10.0,12.0,90,0.00,,,0.02,weatherlink.com 1.10,2013-07-14 00:43:00,
2013-07-13 20:58:00,78.4,75.0,30.21,NW,324,8.0,12.0,90,0.00,,,0.02,weatherlink.com 1.10,2013-07-14 00:58:00,
2013-07-13 21:13:00,78.4,75.0,30.22,NW,317,15.0,17.0,88,0.00,,,0.02,weatherlink.com 1.10,2013-07-14 01:13:00,
2013-07-13 21:28:00,78.4,73.0,30.23,NNW,333,10.0,17.0,84,0.01,,,0.03,weatherlink.com 1.10,2013-07-14 01:28:00,
2013-07-13 21:43:00,79.2,75.0,30.23,NNW,335,11.0,13.0,86,0.02,,,0.04,weatherlink.com 1.10,2013-07-14 01:43:00,
2013-07-13 21:58:00,78.8,74.0,30.24,NNW,338,6.0,10.0,86,0.02,,,0.04,weatherlink.com 1.10,2013-07-14 01:58:00,
2013-07-13 22:13:00,78.5,75.0,30.24,North,349,5.0,9.0,89,0.02,,,0.04,weatherlink.com 1.10,2013-07-14 02:13:00,
2013-07-13 22:28:00,78.1,75.0,30.24,NNW,343,6.0,8.0,91,0.01,,,0.04,weatherlink.com 1.10,2013-07-14 02:28:00,
2013-07-13 22:43:00,77.8,75.0,30.24,WNW,300,7.0,9.0,91,0.00,,,0.04,weatherlink.com 1.10,2013-07-14 02:43:00,
2013-07-13 22:58:00,77.9,75.0,30.25,NNW,335,5.0,8.0,90,0.00,,,0.04,weatherlink.com 1.10,2013-07-14 02:58:00,
2013-07-13 23:13:00,78.0,75.0,30.25,WNW,302,5.0,8.0,90,0.00,,,0.04,weatherlink.com 1.10,2013-07-14 03:13:00,
2013-07-13 23:28:00,77.7,75.0,30.25,NNW,343,5.0,11.0,91,0.00,,,0.04,weatherlink.com 1.10,2013-07-14 03:28:00,
2013-07-13 23:43:00,77.2,75.0,30.25,NNE,31,4.0,6.0,91,0.00,,,0.04,weatherlink.com 1.10,2013-07-14 03:43:00,
2013-07-13 23:58:00,76.9,75.0,30.26,ENE,63,1.0,4.0,92,0.00,,,0.04,weatherlink.com 1.10,2013-07-14 03:58:00,